sensor_id;sensor_type;location;lat;lon;timestamp;pressure;altitude;pressure_sealevel;temperature;humidity
72438;BME280;60444;43.534;-5.674;2022-09-16T00:02:25;101748.03;;;20.91;89.12
72438;BME280;60444;43.534;-5.674;2022-09-16T00:04:51;101752.56;;;20.92;88.66
72438;BME280;60444;43.534;-5.674;2022-09-16T00:07:18;101728.41;;;20.84;88.57
72438;BME280;60444;43.534;-5.674;2022-09-16T00:09:44;101746.06;;;20.93;88.77
72438;BME280;60444;43.534;-5.674;2022-09-16T00:12:10;101736.31;;;20.89;88.41
72438;BME280;60444;43.534;-5.674;2022-09-16T00:14:35;101739.16;;;20.87;89.08
72438;BME280;60444;43.534;-5.674;2022-09-16T00:17:01;101747.72;;;20.95;89.34
72438;BME280;60444;43.534;-5.674;2022-09-16T00:19:26;101758.47;;;20.98;89.46
72438;BME280;60444;43.534;-5.674;2022-09-16T00:21:52;101744.19;;;20.93;88.88
72438;BME280;60444;43.534;-5.674;2022-09-16T00:24:17;101741.44;;;20.93;88.73
72438;BME280;60444;43.534;-5.674;2022-09-16T00:26:43;101738.81;;;20.92;88.66
72438;BME280;60444;43.534;-5.674;2022-09-16T00:29:09;101737.03;;;20.91;88.18
72438;BME280;60444;43.534;-5.674;2022-09-16T00:31:35;101736.31;;;20.89;88.32
72438;BME280;60444;43.534;-5.674;2022-09-16T00:34:00;101749.94;;;20.90;88.21
72438;BME280;60444;43.534;-5.674;2022-09-16T00:36:27;101752.56;;;20.92;87.59
72438;BME280;60444;43.534;-5.674;2022-09-16T00:38:53;101765.66;;;21.01;87.80
72438;BME280;60444;43.534;-5.674;2022-09-16T00:41:27;101766.63;;;21.00;88.38
72438;BME280;60444;43.534;-5.674;2022-09-16T00:44:02;101768.72;;;20.96;88.39
72438;BME280;60444;43.534;-5.674;2022-09-16T00:46:43;101755.63;;;21.00;88.97
72438;BME280;60444;43.534;-5.674;2022-09-16T00:49:39;101763.97;;;20.98;88.41
72438;BME280;60444;43.534;-5.674;2022-09-16T00:52:05;101763.97;;;20.98;88.61
72438;BME280;60444;43.534;-5.674;2022-09-16T00:54:33;101752.06;;;20.87;89.33
72438;BME280;60444;43.534;-5.674;2022-09-16T00:57:01;101769.06;;;20.92;88.72
72438;BME280;60444;43.534;-5.674;2022-09-16T00:59:29;101769.06;;;20.92;87.94
72438;BME280;60444;43.534;-5.674;2022-09-16T01:01:57;101767.31;;;20.91;89.27
72438;BME280;60444;43.534;-5.674;2022-09-16T01:04:35;101762.03;;;20.88;89.12
72438;BME280;60444;43.534;-5.674;2022-09-16T01:07:01;101766.91;;;20.84;89.42
72438;BME280;60444;43.534;-5.674;2022-09-16T01:09:28;101753.34;;;20.70;89.31
72438;BME280;60444;43.534;-5.674;2022-09-16T01:11:55;101753.47;;;20.69;89.10
72438;BME280;60444;43.534;-5.674;2022-09-16T01:14:21;101760.38;;;20.74;89.09
72438;BME280;60444;43.534;-5.674;2022-09-16T01:20:11;101744.13;;;20.58;88.21
72438;BME280;60444;43.534;-5.674;2022-09-16T01:28:57;101766.69;;;20.51;88.26
72438;BME280;60444;43.534;-5.674;2022-09-16T01:37:26;101749.69;;;20.46;90.63
72438;BME280;60444;43.534;-5.674;2022-09-16T01:40:11;101772.19;;;20.51;87.92
72438;BME280;60444;43.534;-5.674;2022-09-16T01:45:50;101775.84;;;20.51;88.37
72438;BME280;60444;43.534;-5.674;2022-09-16T01:51:01;101772.56;;;20.46;86.67
72438;BME280;60444;43.534;-5.674;2022-09-16T01:53:44;101751.03;;;20.40;87.09
72438;BME280;60444;43.534;-5.674;2022-09-16T01:56:48;101765.28;;;20.45;85.66
72438;BME280;60444;43.534;-5.674;2022-09-16T01:59:28;101751.50;;;20.34;85.79
72438;BME280;60444;43.534;-5.674;2022-09-16T02:02:03;101771.16;;;20.41;85.96
72438;BME280;60444;43.534;-5.674;2022-09-16T02:04:35;101775.00;;;20.38;86.61
72438;BME280;60444;43.534;-5.674;2022-09-16T02:07:04;101784.13;;;20.39;86.77
72438;BME280;60444;43.534;-5.674;2022-09-16T02:09:37;101776.75;;;20.39;86.66
72438;BME280;60444;43.534;-5.674;2022-09-16T02:12:11;101775.09;;;20.37;86.43
72438;BME280;60444;43.534;-5.674;2022-09-16T02:14:41;101779.50;;;20.39;86.75
72438;BME280;60444;43.534;-5.674;2022-09-16T02:17:09;101761.06;;;20.29;85.84
72438;BME280;60444;43.534;-5.674;2022-09-16T02:22:19;101771.94;;;20.30;85.42
72438;BME280;60444;43.534;-5.674;2022-09-16T02:24:48;101750.75;;;20.20;85.60
72438;BME280;60444;43.534;-5.674;2022-09-16T02:27:18;101775.91;;;20.26;84.88
72438;BME280;60444;43.534;-5.674;2022-09-16T02:29:54;101776.78;;;20.27;84.68
72438;BME280;60444;43.534;-5.674;2022-09-16T02:32:23;101765.69;;;20.16;84.48
72438;BME280;60444;43.534;-5.674;2022-09-16T02:34:52;101769.53;;;20.26;83.19
72438;BME280;60444;43.534;-5.674;2022-09-16T02:37:40;101772.84;;;20.31;84.45
72438;BME280;60444;43.534;-5.674;2022-09-16T02:40:11;101768.66;;;20.25;84.02
72438;BME280;60444;43.534;-5.674;2022-09-16T02:42:39;101764.22;;;20.35;86.84
72438;BME280;60444;43.534;-5.674;2022-09-16T02:45:06;101769.41;;;20.40;87.10
72438;BME280;60444;43.534;-5.674;2022-09-16T02:47:46;101769.94;;;20.45;87.77
72438;BME280;60444;43.534;-5.674;2022-09-16T02:50:58;101773.25;;;20.37;82.48
72438;BME280;60444;43.534;-5.674;2022-09-16T02:56:31;101769.50;;;20.38;84.02
72438;BME280;60444;43.534;-5.674;2022-09-16T02:58:58;101776.88;;;20.38;80.91
72438;BME280;60444;43.534;-5.674;2022-09-16T03:01:25;101764.13;;;20.37;82.22
72438;BME280;60444;43.534;-5.674;2022-09-16T03:03:53;101759.81;;;20.33;81.55
72438;BME280;60444;43.534;-5.674;2022-09-16T03:06:24;101757.19;;;20.31;81.99
72438;BME280;60444;43.534;-5.674;2022-09-16T03:08:51;101760.47;;;20.36;82.45
72438;BME280;60444;43.534;-5.674;2022-09-16T03:19:39;101742.94;;;20.26;82.35
72438;BME280;60444;43.534;-5.674;2022-09-16T03:24:48;101743.59;;;20.30;85.84
72438;BME280;60444;43.534;-5.674;2022-09-16T03:27:19;101756.34;;;20.31;82.38
72438;BME280;60444;43.534;-5.674;2022-09-16T03:30:08;101756.56;;;20.28;82.95
72438;BME280;60444;43.534;-5.674;2022-09-16T03:32:47;101749.53;;;20.24;82.72
72438;BME280;60444;43.534;-5.674;2022-09-16T03:37:44;101748.88;;;20.20;82.80
72438;BME280;60444;43.534;-5.674;2022-09-16T03:40:13;101734.56;;;20.15;83.23
72438;BME280;60444;43.534;-5.674;2022-09-16T03:42:41;101723.81;;;20.12;83.45
72438;BME280;60444;43.534;-5.674;2022-09-16T03:45:11;101750.66;;;20.21;81.36
72438;BME280;60444;43.534;-5.674;2022-09-16T03:47:37;101737.31;;;20.15;81.87
72438;BME280;60444;43.534;-5.674;2022-09-16T03:50:03;101740.75;;;20.19;81.45
72438;BME280;60444;43.534;-5.674;2022-09-16T03:52:29;101748.53;;;20.25;81.18
72438;BME280;60444;43.534;-5.674;2022-09-16T03:54:55;101746.88;;;20.22;80.31
72438;BME280;60444;43.534;-5.674;2022-09-16T03:57:20;101752.84;;;20.29;82.07
72438;BME280;60444;43.534;-5.674;2022-09-16T03:59:46;101753.81;;;20.28;79.66
72438;BME280;60444;43.534;-5.674;2022-09-16T04:02:11;101736.66;;;20.24;81.37
72438;BME280;60444;43.534;-5.674;2022-09-16T04:04:37;101749.44;;;20.25;79.35
72438;BME280;60444;43.534;-5.674;2022-09-16T04:07:02;101755.66;;;20.27;79.14
72438;BME280;60444;43.534;-5.674;2022-09-16T04:09:28;101734.94;;;20.23;79.16
72438;BME280;60444;43.534;-5.674;2022-09-16T04:11:53;101740.53;;;20.22;79.07
72438;BME280;60444;43.534;-5.674;2022-09-16T04:14:19;101734.69;;;20.26;81.25
72438;BME280;60444;43.534;-5.674;2022-09-16T04:16:44;101731.69;;;20.29;82.42
72438;BME280;60444;43.534;-5.674;2022-09-16T04:19:11;101739.84;;;20.31;81.96
72438;BME280;60444;43.534;-5.674;2022-09-16T04:21:38;101741.94;;;20.27;79.23
72438;BME280;60444;43.534;-5.674;2022-09-16T04:24:04;101734.38;;;20.31;81.40
72438;BME280;60444;43.534;-5.674;2022-09-16T04:26:30;101724.72;;;20.25;79.83
72438;BME280;60444;43.534;-5.674;2022-09-16T04:28:55;101741.59;;;20.32;79.63
72438;BME280;60444;43.534;-5.674;2022-09-16T04:31:21;101735.97;;;20.33;79.78
72438;BME280;60444;43.534;-5.674;2022-09-16T04:33:47;101739.50;;;20.35;80.82
72438;BME280;60444;43.534;-5.674;2022-09-16T04:36:15;101740.03;;;20.40;79.48
72438;BME280;60444;43.534;-5.674;2022-09-16T04:38:42;101747.41;;;20.40;80.42
72438;BME280;60444;43.534;-5.674;2022-09-16T04:41:10;101730.03;;;20.39;83.82
72438;BME280;60444;43.534;-5.674;2022-09-16T04:43:36;101738.00;;;20.55;84.14
72438;BME280;60444;43.534;-5.674;2022-09-16T04:46:03;101738.22;;;20.52;80.23
72438;BME280;60444;43.534;-5.674;2022-09-16T04:48:29;101727.25;;;20.52;84.53
72438;BME280;60444;43.534;-5.674;2022-09-16T04:51:01;101729.63;;;20.56;84.54
72438;BME280;60444;43.534;-5.674;2022-09-16T04:53:27;101731.84;;;20.51;85.55
72438;BME280;60444;43.534;-5.674;2022-09-16T04:55:53;101731.09;;;20.49;85.81
72438;BME280;60444;43.534;-5.674;2022-09-16T04:58:18;101741.19;;;20.61;85.90
72438;BME280;60444;43.534;-5.674;2022-09-16T05:00:44;101738.50;;;20.60;86.71
72438;BME280;60444;43.534;-5.674;2022-09-16T05:03:09;101717.59;;;20.46;85.02
72438;BME280;60444;43.534;-5.674;2022-09-16T05:05:35;101733.94;;;20.48;86.08
72438;BME280;60444;43.534;-5.674;2022-09-16T05:08:00;101728.59;;;20.46;86.07
72438;BME280;60444;43.534;-5.674;2022-09-16T05:10:26;101745.03;;;20.59;86.71
72438;BME280;60444;43.534;-5.674;2022-09-16T05:12:53;101721.50;;;20.55;86.91
72438;BME280;60444;43.534;-5.674;2022-09-16T05:15:19;101728.41;;;20.60;87.26
72438;BME280;60444;43.534;-5.674;2022-09-16T05:17:45;101747.06;;;20.68;87.69
72438;BME280;60444;43.534;-5.674;2022-09-16T05:20:11;101743.31;;;20.69;87.63
72438;BME280;60444;43.534;-5.674;2022-09-16T05:22:37;101746.94;;;20.70;87.37
72438;BME280;60444;43.534;-5.674;2022-09-16T05:25:03;101728.59;;;20.46;84.11
72438;BME280;60444;43.534;-5.674;2022-09-16T05:27:30;101744.66;;;20.63;87.61
72438;BME280;60444;43.534;-5.674;2022-09-16T05:29:56;101750.53;;;20.59;86.17
72438;BME280;60444;43.534;-5.674;2022-09-16T05:32:21;101739.91;;;20.42;84.15
72438;BME280;60444;43.534;-5.674;2022-09-16T05:34:47;101744.84;;;20.49;87.01
72438;BME280;60444;43.534;-5.674;2022-09-16T05:37:13;101747.91;;;20.57;86.68
72438;BME280;60444;43.534;-5.674;2022-09-16T05:39:39;101759.59;;;20.48;84.75
72438;BME280;60444;43.534;-5.674;2022-09-16T05:42:05;101744.94;;;20.48;85.70
72438;BME280;60444;43.534;-5.674;2022-09-16T05:44:30;101746.88;;;20.58;87.97
72438;BME280;60444;43.534;-5.674;2022-09-16T05:46:56;101746.59;;;20.50;86.65
72438;BME280;60444;43.534;-5.674;2022-09-16T05:49:25;101762.09;;;20.51;84.08
72438;BME280;60444;43.534;-5.674;2022-09-16T05:51:51;101745.19;;;20.45;86.40
72438;BME280;60444;43.534;-5.674;2022-09-16T05:54:17;101752.31;;;20.47;85.71
72438;BME280;60444;43.534;-5.674;2022-09-16T05:56:43;101767.34;;;20.54;85.81
72438;BME280;60444;43.534;-5.674;2022-09-16T05:59:11;101759.16;;;20.42;84.34
72438;BME280;60444;43.534;-5.674;2022-09-16T06:01:37;101759.97;;;20.55;87.79
72438;BME280;60444;43.534;-5.674;2022-09-16T06:04:05;101771.41;;;20.61;87.89
72438;BME280;60444;43.534;-5.674;2022-09-16T06:09:00;101773.16;;;20.62;87.45
72438;BME280;60444;43.534;-5.674;2022-09-16T06:11:27;101781.94;;;20.67;88.13
72438;BME280;60444;43.534;-5.674;2022-09-16T06:13:55;101781.81;;;20.69;88.87
72438;BME280;60444;43.534;-5.674;2022-09-16T06:16:22;101786.59;;;20.54;83.71
72438;BME280;60444;43.534;-5.674;2022-09-16T06:18:50;101781.38;;;20.39;83.14
72438;BME280;60444;43.534;-5.674;2022-09-16T06:21:16;101763.69;;;20.30;83.41
72438;BME280;60444;43.534;-5.674;2022-09-16T06:23:41;101788.16;;;20.46;86.11
72438;BME280;60444;43.534;-5.674;2022-09-16T06:26:15;101787.06;;;20.48;86.12
72438;BME280;60444;43.534;-5.674;2022-09-16T06:28:42;101776.28;;;20.45;86.61
72438;BME280;60444;43.534;-5.674;2022-09-16T06:31:10;101780.44;;;20.51;87.72
72438;BME280;60444;43.534;-5.674;2022-09-16T06:33:36;101780.88;;;20.57;88.32
72438;BME280;60444;43.534;-5.674;2022-09-16T06:36:18;101801.31;;;20.66;89.15
72438;BME280;60444;43.534;-5.674;2022-09-16T06:38:45;101776.28;;;20.58;88.34
72438;BME280;60444;43.534;-5.674;2022-09-16T06:41:13;101786.03;;;20.62;89.27
72438;BME280;60444;43.534;-5.674;2022-09-16T06:43:39;101793.81;;;20.68;88.26
72438;BME280;60444;43.534;-5.674;2022-09-16T06:46:09;101797.09;;;20.73;88.58
72438;BME280;60444;43.534;-5.674;2022-09-16T06:48:41;101801.72;;;20.73;88.12
72438;BME280;60444;43.534;-5.674;2022-09-16T06:51:13;101784.94;;;20.64;88.66
72438;BME280;60444;43.534;-5.674;2022-09-16T06:53:39;101795.34;;;20.72;88.55
72438;BME280;60444;43.534;-5.674;2022-09-16T06:56:07;101800.59;;;20.75;89.20
72438;BME280;60444;43.534;-5.674;2022-09-16T06:58:35;101794.72;;;20.69;88.54
72438;BME280;60444;43.534;-5.674;2022-09-16T07:01:12;101806.75;;;20.79;88.32
72438;BME280;60444;43.534;-5.674;2022-09-16T07:03:40;101785.22;;;20.73;87.93
72438;BME280;60444;43.534;-5.674;2022-09-16T07:06:06;101782.69;;;20.70;88.97
72438;BME280;60444;43.534;-5.674;2022-09-16T07:08:33;101806.88;;;20.77;88.87
72438;BME280;60444;43.534;-5.674;2022-09-16T07:11:05;101812.25;;;20.79;88.89
72438;BME280;60444;43.534;-5.674;2022-09-16T07:13:31;101811.59;;;20.75;88.49
72438;BME280;60444;43.534;-5.674;2022-09-16T07:16:01;101816.00;;;20.78;89.12
72438;BME280;60444;43.534;-5.674;2022-09-16T07:18:28;101810.72;;;20.75;89.09
72438;BME280;60444;43.534;-5.674;2022-09-16T07:21:21;101814.69;;;20.83;88.22
72438;BME280;60444;43.534;-5.674;2022-09-16T07:23:49;101817.75;;;20.79;87.21
72438;BME280;60444;43.534;-5.674;2022-09-16T07:26:16;101818.75;;;20.78;88.61
72438;BME280;60444;43.534;-5.674;2022-09-16T07:28:43;101820.22;;;20.71;89.08
72438;BME280;60444;43.534;-5.674;2022-09-16T07:31:13;101823.50;;;20.76;88.60
72438;BME280;60444;43.534;-5.674;2022-09-16T07:33:41;101819.88;;;20.75;89.10
72438;BME280;60444;43.534;-5.674;2022-09-16T07:36:09;101823.72;;;20.73;88.37
72438;BME280;60444;43.534;-5.674;2022-09-16T07:38:35;101827.22;;;20.75;88.91
72438;BME280;60444;43.534;-5.674;2022-09-16T07:41:28;101825.34;;;20.75;88.32
72438;BME280;60444;43.534;-5.674;2022-09-16T07:43:55;101825.72;;;20.71;88.34
72438;BME280;60444;43.534;-5.674;2022-09-16T07:46:24;101836.72;;;20.71;88.75
72438;BME280;60444;43.534;-5.674;2022-09-16T07:48:50;101827.47;;;20.72;88.77
72438;BME280;60444;43.534;-5.674;2022-09-16T07:51:21;101834.13;;;20.80;89.42
72438;BME280;60444;43.534;-5.674;2022-09-16T07:53:51;101840.13;;;20.74;87.10
72438;BME280;60444;43.534;-5.674;2022-09-16T07:56:19;101831.97;;;20.73;89.38
72438;BME280;60444;43.534;-5.674;2022-09-16T07:58:46;101843.28;;;20.81;89.47
72438;BME280;60444;43.534;-5.674;2022-09-16T08:01:13;101845.91;;;20.82;89.94
72438;BME280;60444;43.534;-5.674;2022-09-16T08:03:40;101828.22;;;20.74;89.13
72438;BME280;60444;43.534;-5.674;2022-09-16T08:06:10;101832.28;;;20.81;88.81
72438;BME280;60444;43.534;-5.674;2022-09-16T08:08:37;101845.44;;;20.88;89.81
72438;BME280;60444;43.534;-5.674;2022-09-16T08:11:03;101839.31;;;20.85;89.21
72438;BME280;60444;43.534;-5.674;2022-09-16T08:13:30;101838.53;;;20.83;89.17
72438;BME280;60444;43.534;-5.674;2022-09-16T08:16:01;101827.47;;;20.72;87.34
72438;BME280;60444;43.534;-5.674;2022-09-16T08:18:27;101856.59;;;20.87;89.42
72438;BME280;60444;43.534;-5.674;2022-09-16T08:20:53;101846.78;;;20.83;88.76
72438;BME280;60444;43.534;-5.674;2022-09-16T08:23:18;101840.13;;;20.74;85.55
72438;BME280;60444;43.534;-5.674;2022-09-16T08:25:44;101846.78;;;20.83;88.75
72438;BME280;60444;43.534;-5.674;2022-09-16T08:28:15;101856.09;;;20.93;89.61
72438;BME280;60444;43.534;-5.674;2022-09-16T08:30:41;101854.69;;;20.87;88.46
72438;BME280;60444;43.534;-5.674;2022-09-16T08:33:07;101850.72;;;20.91;88.68
72438;BME280;60444;43.534;-5.674;2022-09-16T08:35:32;101848.84;;;20.92;88.93
72438;BME280;60444;43.534;-5.674;2022-09-16T08:37:58;101872.28;;;20.97;88.45
72438;BME280;60444;43.534;-5.674;2022-09-16T08:40:25;101870.31;;;20.99;88.50
72438;BME280;60444;43.534;-5.674;2022-09-16T08:45:48;101870.31;;;20.99;88.01
72438;BME280;60444;43.534;-5.674;2022-09-16T08:48:55;101876.47;;;21.03;88.11
72438;BME280;60444;43.534;-5.674;2022-09-16T08:51:23;101870.84;;;21.04;88.28
72438;BME280;60444;43.534;-5.674;2022-09-16T08:53:59;101839.31;;;20.85;88.30
72438;BME280;60444;43.534;-5.674;2022-09-16T08:56:28;101874.91;;;20.99;84.60
72438;BME280;60444;43.534;-5.674;2022-09-16T08:58:56;101867.97;;;20.93;83.70
72438;BME280;60444;43.534;-5.674;2022-09-16T09:01:34;101878.75;;;20.96;83.61
72438;BME280;60444;43.534;-5.674;2022-09-16T09:04:03;101869.84;;;20.93;85.34
72438;BME280;60444;43.534;-5.674;2022-09-16T09:12:36;101885.25;;;21.08;87.23
72438;BME280;60444;43.534;-5.674;2022-09-16T09:15:07;101894.03;;;21.13;86.52
72438;BME280;60444;43.534;-5.674;2022-09-16T09:23:31;101883.06;;;21.00;84.29
72438;BME280;60444;43.534;-5.674;2022-09-16T09:26:20;101877.13;;;20.94;82.56
72438;BME280;60444;43.534;-5.674;2022-09-16T09:29:19;101880.19;;;21.02;82.31
72438;BME280;60444;43.534;-5.674;2022-09-16T09:37:33;101902.16;;;21.14;81.10
72438;BME280;60444;43.534;-5.674;2022-09-16T09:43:02;101891.91;;;21.16;84.96
72438;BME280;60444;43.534;-5.674;2022-09-16T09:45:35;101907.41;;;21.30;85.31
72438;BME280;60444;43.534;-5.674;2022-09-16T09:48:12;101897.84;;;21.23;81.22
72438;BME280;60444;43.534;-5.674;2022-09-16T09:50:51;101910.91;;;21.32;80.43
72438;BME280;60444;43.534;-5.674;2022-09-16T09:53:24;101886.34;;;21.29;84.60
72438;BME280;60444;43.534;-5.674;2022-09-16T09:56:25;101895.69;;;21.39;84.52
72438;BME280;60444;43.534;-5.674;2022-09-16T10:01:19;101900.81;;;21.43;81.44
72438;BME280;60444;43.534;-5.674;2022-09-16T10:03:47;101893.06;;;21.37;78.94
72438;BME280;60444;43.534;-5.674;2022-09-16T10:06:13;101888.78;;;21.33;78.08
72438;BME280;60444;43.534;-5.674;2022-09-16T10:08:47;101899.72;;;21.46;78.12
72438;BME280;60444;43.534;-5.674;2022-09-16T10:11:16;101901.47;;;21.47;78.03
72438;BME280;60444;43.534;-5.674;2022-09-16T10:13:55;101913.28;;;21.60;82.64
72438;BME280;60444;43.534;-5.674;2022-09-16T10:16:26;101891.97;;;21.51;74.96
72438;BME280;60444;43.534;-5.674;2022-09-16T10:19:22;101895.03;;;21.59;73.40
72438;BME280;60444;43.534;-5.674;2022-09-16T10:22:07;101910.84;;;21.68;72.27
72438;BME280;60444;43.534;-5.674;2022-09-16T10:24:36;101909.56;;;21.72;74.33
72438;BME280;60444;43.534;-5.674;2022-09-16T10:27:19;101891.56;;;21.68;73.41
72438;BME280;60444;43.534;-5.674;2022-09-16T10:29:45;101895.59;;;21.75;75.53
72438;BME280;60444;43.534;-5.674;2022-09-16T10:32:16;101895.00;;;21.83;76.70
72438;BME280;60444;43.534;-5.674;2022-09-16T10:34:43;101905.38;;;21.79;71.91
72438;BME280;60444;43.534;-5.674;2022-09-16T10:39:37;101903.38;;;21.81;72.72
72438;BME280;60444;43.534;-5.674;2022-09-16T10:42:04;101893.81;;;21.74;71.81
72438;BME280;60444;43.534;-5.674;2022-09-16T10:44:32;101894.06;;;21.71;71.74
72438;BME280;60444;43.534;-5.674;2022-09-16T10:47:01;101898.34;;;21.75;72.43
72438;BME280;60444;43.534;-5.674;2022-09-16T10:52:31;101891.31;;;21.71;72.36
72438;BME280;60444;43.534;-5.674;2022-09-16T10:55:28;101886.97;;;21.56;72.12
72438;BME280;60444;43.534;-5.674;2022-09-16T10:58:13;101909.44;;;21.62;72.55
72438;BME280;60444;43.534;-5.674;2022-09-16T11:00:49;101907.16;;;21.56;72.77
72438;BME280;60444;43.534;-5.674;2022-09-16T11:06:17;101906.56;;;21.64;73.21
72438;BME280;60444;43.534;-5.674;2022-09-16T11:11:35;101899.28;;;21.63;73.21
72438;BME280;60444;43.534;-5.674;2022-09-16T11:19:34;101871.09;;;21.59;73.50
72438;BME280;60444;43.534;-5.674;2022-09-16T11:22:20;101893.94;;;21.73;72.79
72438;BME280;60444;43.534;-5.674;2022-09-16T11:30:50;101884.66;;;21.74;76.31
72438;BME280;60444;43.534;-5.674;2022-09-16T11:33:40;101898.00;;;21.80;73.32
72438;BME280;60444;43.534;-5.674;2022-09-16T11:41:48;101898.50;;;21.85;73.51
72438;BME280;60444;43.534;-5.674;2022-09-16T11:44:38;101898.34;;;21.75;73.22
72438;BME280;60444;43.534;-5.674;2022-09-16T11:55:37;101888.91;;;21.66;72.88
72438;BME280;60444;43.534;-5.674;2022-09-16T12:00:45;101872.75;;;21.62;72.79
72438;BME280;60444;43.534;-5.674;2022-09-16T12:03:31;101882.16;;;21.71;72.26
72438;BME280;60444;43.534;-5.674;2022-09-16T12:06:13;101891.06;;;21.74;72.07
72438;BME280;60444;43.534;-5.674;2022-09-16T12:09:01;101868.25;;;21.72;71.33
72438;BME280;60444;43.534;-5.674;2022-09-16T12:11:34;101882.34;;;21.80;71.70
72438;BME280;60444;43.534;-5.674;2022-09-16T12:14:14;101877.75;;;21.81;71.71
72438;BME280;60444;43.534;-5.674;2022-09-16T12:16:44;101884.38;;;21.89;75.06
72438;BME280;60444;43.534;-5.674;2022-09-16T12:19:19;101874.97;;;21.92;75.71
72438;BME280;60444;43.534;-5.674;2022-09-16T12:22:20;101887.56;;;22.07;76.40
72438;BME280;60444;43.534;-5.674;2022-09-16T12:27:50;101894.72;;;22.09;70.73
72438;BME280;60444;43.534;-5.674;2022-09-16T12:30:21;101889.06;;;22.11;70.20
72438;BME280;60444;43.534;-5.674;2022-09-16T12:33:09;101880.81;;;22.11;70.37
72438;BME280;60444;43.534;-5.674;2022-09-16T12:35:55;101881.94;;;22.19;72.64
72438;BME280;60444;43.534;-5.674;2022-09-16T12:38:22;101875.41;;;22.09;70.90
72438;BME280;60444;43.534;-5.674;2022-09-16T12:54:19;101874.78;;;22.06;71.75
72438;BME280;60444;43.534;-5.674;2022-09-16T13:02:21;101885.28;;;21.90;72.97
72438;BME280;60444;43.534;-5.674;2022-09-16T13:04:51;101874.31;;;21.77;73.74
72438;BME280;60444;43.534;-5.674;2022-09-16T13:07:30;101874.16;;;21.67;74.24
72438;BME280;60444;43.534;-5.674;2022-09-16T13:10:20;101887.53;;;21.72;74.65
72438;BME280;60444;43.534;-5.674;2022-09-16T13:12:53;101872.50;;;21.65;74.80
72438;BME280;60444;43.534;-5.674;2022-09-16T13:15:27;101864.59;;;21.60;75.36
72438;BME280;60444;43.534;-5.674;2022-09-16T13:17:54;101883.94;;;21.72;74.67
72438;BME280;60444;43.534;-5.674;2022-09-16T13:20:36;101863.75;;;21.71;76.79
72438;BME280;60444;43.534;-5.674;2022-09-16T13:23:16;101870.78;;;21.75;75.13
72438;BME280;60444;43.534;-5.674;2022-09-16T13:39:09;101859.84;;;21.97;76.09
72438;BME280;60444;43.534;-5.674;2022-09-16T13:41:36;101863.75;;;22.06;74.56
72438;BME280;60444;43.534;-5.674;2022-09-16T13:47:15;101841.34;;;22.21;74.73
72438;BME280;60444;43.534;-5.674;2022-09-16T13:52:11;101819.53;;;22.18;74.17
72438;BME280;60444;43.534;-5.674;2022-09-16T13:54:57;101840.19;;;22.46;74.72
72438;BME280;60444;43.534;-5.674;2022-09-16T13:57:43;101842.34;;;22.53;74.75
72438;BME280;60444;43.534;-5.674;2022-09-16T14:00:26;101839.09;;;22.48;74.23
72438;BME280;60444;43.534;-5.674;2022-09-16T14:06:06;101830.19;;;22.45;75.22
72438;BME280;60444;43.534;-5.674;2022-09-16T14:08:58;101839.22;;;22.36;76.33
72438;BME280;60444;43.534;-5.674;2022-09-16T14:11:34;101832.81;;;22.35;77.13
72438;BME280;60444;43.534;-5.674;2022-09-16T14:14:08;101832.81;;;22.35;77.23
72438;BME280;60444;43.534;-5.674;2022-09-16T14:16:40;101817.66;;;22.19;77.19
72438;BME280;60444;43.534;-5.674;2022-09-16T14:21:40;101823.41;;;22.05;78.09
72438;BME280;60444;43.534;-5.674;2022-09-16T14:24:33;101818.50;;;21.97;78.84
72438;BME280;60444;43.534;-5.674;2022-09-16T14:26:59;101807.59;;;21.85;79.05
72438;BME280;60444;43.534;-5.674;2022-09-16T14:29:24;101791.38;;;21.69;79.54
72438;BME280;60444;43.534;-5.674;2022-09-16T14:31:53;101793.88;;;21.72;80.29
72438;BME280;60444;43.534;-5.674;2022-09-16T14:34:36;101817.56;;;21.75;80.19
72438;BME280;60444;43.534;-5.674;2022-09-16T14:37:03;101813.72;;;21.77;79.76
72438;BME280;60444;43.534;-5.674;2022-09-16T14:39:30;101800.91;;;21.76;79.98
72438;BME280;60444;43.534;-5.674;2022-09-16T14:42:04;101785.81;;;21.82;80.29
72438;BME280;60444;43.534;-5.674;2022-09-16T14:49:44;101799.72;;;21.91;78.64
72438;BME280;60444;43.534;-5.674;2022-09-16T14:52:22;101799.00;;;22.00;78.30
72438;BME280;60444;43.534;-5.674;2022-09-16T14:54:51;101792.47;;;22.01;78.74
72438;BME280;60444;43.534;-5.674;2022-09-16T14:57:30;101786.59;;;21.95;77.18
72438;BME280;60444;43.534;-5.674;2022-09-16T15:00:02;101773.16;;;21.90;78.18
72438;BME280;60444;43.534;-5.674;2022-09-16T15:02:52;101794.84;;;21.95;78.13
72438;BME280;60444;43.534;-5.674;2022-09-16T15:05:27;101788.47;;;21.94;78.69
72438;BME280;60444;43.534;-5.674;2022-09-16T15:10:28;101762.59;;;21.73;78.28
72438;BME280;60444;43.534;-5.674;2022-09-16T15:12:57;101782.69;;;21.86;78.20
72438;BME280;60444;43.534;-5.674;2022-09-16T15:15:28;101771.69;;;21.86;78.32
72438;BME280;60444;43.534;-5.674;2022-09-16T15:18:02;101770.06;;;21.95;79.52
72438;BME280;60444;43.534;-5.674;2022-09-16T15:20:33;101763.41;;;21.86;79.41
72438;BME280;60444;43.534;-5.674;2022-09-16T15:23:00;101767.44;;;21.93;78.86
72438;BME280;60444;43.534;-5.674;2022-09-16T15:25:29;101771.44;;;22.00;79.87
72438;BME280;60444;43.534;-5.674;2022-09-16T15:28:14;101757.88;;;21.97;79.68
72438;BME280;60444;43.534;-5.674;2022-09-16T15:30:48;101766.41;;;21.94;78.78
72438;BME280;60444;43.534;-5.674;2022-09-16T15:33:35;101763.31;;;21.99;79.93
72438;BME280;60444;43.534;-5.674;2022-09-16T15:36:02;101759.38;;;21.90;77.49
72438;BME280;60444;43.534;-5.674;2022-09-16T15:38:29;101768.06;;;21.97;78.82
72438;BME280;60444;43.534;-5.674;2022-09-16T15:41:10;101772.69;;;21.96;79.67
72438;BME280;60444;43.534;-5.674;2022-09-16T15:43:38;101763.66;;;21.94;79.72
72438;BME280;60444;43.534;-5.674;2022-09-16T15:46:18;101773.44;;;21.98;77.50